Donnes mto: Actuelle samedi, 26/05/2018 14:05
Date Horaire Temp. E. Hum. E. P.atmo. Pluie Vent Direction Direction Ensoleilleme Ev.Tr. UV Solaire P. de rose Temp au vent Rafales
26/05/2018 14:05 25,4 C 49 % 1010,8 hPa 0,0 mm 1,3 km/h (1 Bft) E-SE 119 0 min 0,381 mm 1,0 UV-I 158 W/m 13,9 C 25,4 C 8,0 km/h (2 Bft)
26/05/2018 14:00 26,2 C 46 % 1011,3 hPa 0,0 mm 2,7 km/h (1 Bft) S 178 0 min 0,000 mm 1,9 UV-I 358 W/m 13,6 C 26,2 C 16,1 km/h (3 Bft)
26/05/2018 13:55 26,5 C 47 % 1011,5 hPa 0,0 mm 3,0 km/h (1 Bft) SE 138 5 min 0,000 mm 6,3 UV-I 1043 W/m 14,3 C 26,5 C 14,5 km/h (3 Bft)
26/05/2018 13:50 25,8 C 49 % 1011,6 hPa 0,0 mm 2,9 km/h (1 Bft) SE 128 5 min 0,000 mm 6,8 UV-I 1019 W/m 14,3 C 25,8 C 11,3 km/h (2 Bft)
26/05/2018 13:45 25,3 C 48 % 1011,5 hPa 0,0 mm 4,7 km/h (1 Bft) SE 146 5 min 0,000 mm 5,4 UV-I 618 W/m 13,5 C 25,3 C 14,5 km/h (3 Bft)
26/05/2018 13:40 25,4 C 48 % 1011,3 hPa 0,0 mm 4,4 km/h (1 Bft) NO 321 5 min 0,000 mm 4,0 UV-I 630 W/m 13,6 C 25,4 C 16,1 km/h (3 Bft)
26/05/2018 13:35 25,3 C 50 % 1011,3 hPa 0,0 mm 3,7 km/h (1 Bft) E-SE 111 5 min 0,000 mm 4,6 UV-I 610 W/m 14,1 C 25,3 C 16,1 km/h (3 Bft)
26/05/2018 13:30 25,2 C 52 % 1011,2 hPa 0,0 mm 1,9 km/h (1 Bft) NE 46 0 min 0,000 mm 2,8 UV-I 382 W/m 14,6 C 25,2 C 12,9 km/h (3 Bft)
26/05/2018 13:25 25,2 C 52 % 1011,2 hPa 0,0 mm 2,9 km/h (1 Bft) S-SE 159 0 min 0,000 mm 2,5 UV-I 353 W/m 14,6 C 25,2 C 19,3 km/h (3 Bft)
26/05/2018 13:20 25,3 C 53 % 1011,1 hPa 0,0 mm 2,9 km/h (1 Bft) SE 132 0 min 0,000 mm 2,9 UV-I 421 W/m 15,0 C 25,3 C 14,5 km/h (3 Bft)
26/05/2018 13:15 25,2 C 52 % 1011,0 hPa 0,0 mm 1,7 km/h (1 Bft) SE 126 0 min 0,000 mm 2,9 UV-I 386 W/m 14,6 C 25,2 C 11,3 km/h (2 Bft)
26/05/2018 13:10 25,2 C 49 % 1011,1 hPa 0,0 mm 2,3 km/h (1 Bft) S 187 0 min 0,000 mm 2,9 UV-I 371 W/m 13,7 C 25,2 C 12,9 km/h (3 Bft)
26/05/2018 13:05 25,4 C 50 % 1011,3 hPa 0,0 mm 4,0 km/h (1 Bft) S-SO 211 0 min 0,533 mm 2,8 UV-I 356 W/m 14,2 C 25,4 C 17,7 km/h (3 Bft)
26/05/2018 13:00 25,8 C 49 % 1011,1 hPa 0,0 mm 3,6 km/h (1 Bft) E-SE 105 5 min 0,000 mm 3,6 UV-I 545 W/m 14,3 C 25,8 C 12,9 km/h (3 Bft)
26/05/2018 12:55 26,0 C 46 % 1010,9 hPa 0,0 mm 5,5 km/h (2 Bft) O 262 0 min 0,000 mm 4,9 UV-I 482 W/m 13,5 C 26,0 C 17,7 km/h (3 Bft)
26/05/2018 12:50 26,4 C 46 % 1011,0 hPa 0,0 mm 6,6 km/h (2 Bft) SE 126 5 min 0,000 mm 5,6 UV-I 881 W/m 13,8 C 26,4 C 19,3 km/h (3 Bft)
26/05/2018 12:45 26,4 C 48 % 1010,9 hPa 0,0 mm 2,7 km/h (1 Bft) SE 136 5 min 0,000 mm 5,9 UV-I 894 W/m 14,5 C 26,4 C 16,1 km/h (3 Bft)
26/05/2018 12:40 26,1 C 46 % 1010,8 hPa 0,0 mm 5,4 km/h (2 Bft) E 94 5 min 0,000 mm 5,8 UV-I 877 W/m 13,6 C 26,1 C 17,7 km/h (3 Bft)
26/05/2018 12:35 26,3 C 47 % 1010,8 hPa 0,0 mm 3,6 km/h (1 Bft) SE 143 5 min 0,000 mm 5,7 UV-I 864 W/m 14,1 C 26,3 C 17,7 km/h (3 Bft)
26/05/2018 12:30 26,2 C 48 % 1010,7 hPa 0,0 mm 5,1 km/h (1 Bft) N-NO 327 5 min 0,000 mm 5,6 UV-I 855 W/m 14,3 C 26,2 C 16,1 km/h (3 Bft)
26/05/2018 12:25 26,1 C 50 % 1010,8 hPa 0,0 mm 3,8 km/h (1 Bft) S-SO 192 5 min 0,000 mm 5,5 UV-I 847 W/m 14,8 C 26,1 C 14,5 km/h (3 Bft)
26/05/2018 12:20 26,2 C 49 % 1010,8 hPa 0,0 mm 2,9 km/h (1 Bft) SO 223 5 min 0,000 mm 5,4 UV-I 842 W/m 14,6 C 26,2 C 11,3 km/h (2 Bft)
26/05/2018 12:15 26,3 C 51 % 1010,8 hPa 0,0 mm 4,0 km/h (1 Bft) O-SO 257 5 min 0,000 mm 5,2 UV-I 832 W/m 15,3 C 26,3 C 17,7 km/h (3 Bft)
26/05/2018 12:10 26,1 C 52 % 1010,9 hPa 0,0 mm 2,9 km/h (1 Bft) SE 141 5 min 0,000 mm 5,1 UV-I 822 W/m 15,5 C 26,1 C 12,9 km/h (3 Bft)
26/05/2018 12:05 25,8 C 52 % 1010,9 hPa 0,0 mm 3,6 km/h (1 Bft) S-SO 206 5 min 0,457 mm 5,0 UV-I 812 W/m 15,2 C 25,8 C 11,3 km/h (2 Bft)
26/05/2018 12:00 25,7 C 54 % 1011,0 hPa 0,0 mm 1,7 km/h (1 Bft) E-SE 109 5 min 0,000 mm 4,9 UV-I 803 W/m 15,7 C 25,7 C 14,5 km/h (3 Bft)
26/05/2018 11:55 25,4 C 54 % 1011,1 hPa 0,0 mm 2,5 km/h (1 Bft) SE 146 5 min 0,000 mm 4,8 UV-I 792 W/m 15,4 C 25,4 C 11,3 km/h (2 Bft)
26/05/2018 11:50 25,2 C 54 % 1011,1 hPa 0,0 mm 1,2 km/h (1 Bft) S-SE 149 5 min 0,000 mm 4,7 UV-I 783 W/m 15,2 C 25,2 C 6,4 km/h (2 Bft)
26/05/2018 11:45 24,9 C 55 % 1011,0 hPa 0,0 mm 1,5 km/h (1 Bft) N 9 5 min 0,000 mm 4,6 UV-I 771 W/m 15,2 C 24,9 C 6,4 km/h (2 Bft)
26/05/2018 11:40 24,8 C 54 % 1010,9 hPa 0,0 mm 3,1 km/h (1 Bft) S 180 5 min 0,000 mm 4,5 UV-I 762 W/m 14,8 C 24,8 C 11,3 km/h (2 Bft)
26/05/2018 11:35 24,8 C 56 % 1011,0 hPa 0,0 mm 1,9 km/h (1 Bft) E 86 5 min 0,000 mm 4,4 UV-I 749 W/m 15,4 C 24,8 C 11,3 km/h (2 Bft)
26/05/2018 11:30 24,7 C 55 % 1011,0 hPa 0,0 mm 1,0 km/h (0 Bft) S 187 5 min 0,000 mm 4,2 UV-I 735 W/m 15,0 C 24,7 C 6,4 km/h (2 Bft)
26/05/2018 11:25 24,4 C 57 % 1011,0 hPa 0,0 mm 0,7 km/h (0 Bft) E 92 5 min 0,000 mm 4,1 UV-I 723 W/m 15,3 C 24,4 C 6,4 km/h (2 Bft)
26/05/2018 11:20 24,0 C 58 % 1011,2 hPa 0,0 mm 2,4 km/h (1 Bft) SE 140 5 min 0,000 mm 4,0 UV-I 710 W/m 15,2 C 24,0 C 8,0 km/h (2 Bft)
26/05/2018 11:15 23,7 C 56 % 1011,1 hPa 0,0 mm 3,5 km/h (1 Bft) S-SE 149 5 min 0,000 mm 3,6 UV-I 693 W/m 14,4 C 23,7 C 12,9 km/h (3 Bft)
26/05/2018 11:10 23,7 C 56 % 1011,2 hPa 0,0 mm 2,2 km/h (1 Bft) E-SE 121 5 min 0,000 mm 3,6 UV-I 685 W/m 14,4 C 23,7 C 11,3 km/h (2 Bft)
26/05/2018 11:05 23,4 C 59 % 1011,1 hPa 0,0 mm 2,4 km/h (1 Bft) S-SE 153 5 min 0,127 mm 3,6 UV-I 670 W/m 14,9 C 23,4 C 14,5 km/h (3 Bft)
26/05/2018 11:00 23,1 C 58 % 1011,2 hPa 0,0 mm 2,5 km/h (1 Bft) S 188 5 min 0,000 mm 3,5 UV-I 653 W/m 14,4 C 23,1 C 9,7 km/h (2 Bft)
26/05/2018 10:55 22,9 C 58 % 1011,3 hPa 0,0 mm 2,4 km/h (1 Bft) SE 129 5 min 0,000 mm 2,5 UV-I 569 W/m 14,2 C 22,9 C 12,9 km/h (3 Bft)
26/05/2018 10:50 22,8 C 57 % 1011,3 hPa 0,0 mm 3,5 km/h (1 Bft) S-SE 160 0 min 0,000 mm 1,7 UV-I 121 W/m 13,8 C 22,8 C 14,5 km/h (3 Bft)
26/05/2018 10:45 22,6 C 62 % 1011,2 hPa 0,0 mm 1,2 km/h (1 Bft) SE 140 0 min 0,000 mm 1,6 UV-I 82 W/m 14,9 C 22,6 C 8,0 km/h (2 Bft)
26/05/2018 10:40 22,3 C 63 % 1011,3 hPa 0,0 mm 2,0 km/h (1 Bft) S-SO 199 0 min 0,000 mm 1,7 UV-I 125 W/m 14,9 C 22,3 C 12,9 km/h (3 Bft)
26/05/2018 10:35 22,1 C 63 % 1011,3 hPa 0,0 mm 1,3 km/h (1 Bft) S-SE 156 0 min 0,000 mm 1,6 UV-I 102 W/m 14,7 C 22,1 C 6,4 km/h (2 Bft)
26/05/2018 10:30 21,9 C 63 % 1011,4 hPa 0,0 mm 1,7 km/h (1 Bft) E-NE 75 0 min 0,000 mm 1,7 UV-I 142 W/m 14,5 C 21,9 C 8,0 km/h (2 Bft)
26/05/2018 10:25 21,7 C 64 % 1011,4 hPa 0,0 mm 0,9 km/h (0 Bft) E 84 0 min 0,000 mm 1,7 UV-I 169 W/m 14,6 C 21,7 C 9,7 km/h (2 Bft)
26/05/2018 10:20 21,5 C 62 % 1011,5 hPa 0,0 mm 3,2 km/h (1 Bft) E 79 0 min 0,000 mm 1,4 UV-I 109 W/m 13,9 C 21,5 C 12,9 km/h (3 Bft)
26/05/2018 10:15 21,4 C 63 % 1011,6 hPa 0,0 mm 1,5 km/h (1 Bft) S-SE 157 0 min 0,000 mm 1,3 UV-I 72 W/m 14,1 C 21,4 C 9,7 km/h (2 Bft)
26/05/2018 10:10 21,2 C 62 % 1011,7 hPa 0,0 mm 3,3 km/h (1 Bft) S 169 0 min 0,000 mm 1,3 UV-I 71 W/m 13,6 C 21,2 C 12,9 km/h (3 Bft)
26/05/2018 10:05 21,1 C 62 % 1011,6 hPa 0,0 mm 1,4 km/h (1 Bft) S 176 0 min 0,077 mm 1,2 UV-I 69 W/m 13,5 C 21,1 C 8,0 km/h (2 Bft)
26/05/2018 10:00 20,9 C 64 % 1011,7 hPa 0,0 mm 0,9 km/h (0 Bft) S 172 0 min 0,000 mm 1,2 UV-I 73 W/m 13,8 C 20,9 C 6,4 km/h (2 Bft)
26/05/2018 09:55 20,8 C 62 % 1011,7 hPa 0,0 mm 2,6 km/h (1 Bft) S-SE 153 0 min 0,000 mm 1,1 UV-I 74 W/m 13,2 C 20,8 C 11,3 km/h (2 Bft)
26/05/2018 09:50 20,6 C 63 % 1011,8 hPa 0,0 mm 3,0 km/h (1 Bft) S 171 0 min 0,000 mm 1,1 UV-I 69 W/m 13,3 C 20,6 C 11,3 km/h (2 Bft)
26/05/2018 09:45 20,4 C 63 % 1011,7 hPa 0,0 mm 0,9 km/h (0 Bft) S-SE 155 0 min 0,000 mm 1,0 UV-I 69 W/m 13,1 C 20,4 C 9,7 km/h (2 Bft)
26/05/2018 09:40 20,2 C 63 % 1011,8 hPa 0,0 mm 2,7 km/h (1 Bft) S-SE 159 0 min 0,000 mm 1,1 UV-I 82 W/m 12,9 C 20,2 C 11,3 km/h (2 Bft)
26/05/2018 09:35 19,9 C 67 % 1011,8 hPa 0,0 mm 0,4 km/h (0 Bft) E-SE 123 0 min 0,000 mm 1,0 UV-I 146 W/m 13,6 C 19,9 C 3,2 km/h (1 Bft)
26/05/2018 09:30 19,7 C 66 % 1011,8 hPa 0,0 mm 0,1 km/h (0 Bft) SE 129 0 min 0,000 mm 1,0 UV-I 107 W/m 13,2 C 19,7 C 1,6 km/h (1 Bft)
26/05/2018 09:25 19,4 C 67 % 1011,9 hPa 0,0 mm 0,4 km/h (0 Bft) NE 46 0 min 0,000 mm 1,1 UV-I 178 W/m 13,1 C 19,4 C 4,8 km/h (1 Bft)
26/05/2018 09:20 19,3 C 67 % 1012,0 hPa 0,0 mm 0,2 km/h (0 Bft) S-SE 157 0 min 0,000 mm 0,8 UV-I 113 W/m 13,0 C 19,3 C 3,2 km/h (1 Bft)
26/05/2018 09:15 19,2 C 67 % 1012,0 hPa 0,0 mm 0,0 km/h (0 Bft) E-SE 112 0 min 0,000 mm 0,8 UV-I 66 W/m 12,9 C 19,2 C 1,6 km/h (1 Bft)
26/05/2018 09:10 19,1 C 68 % 1011,9 hPa 0,0 mm 0,0 km/h (0 Bft) SE 127 0 min 0,000 mm 0,7 UV-I 65 W/m 13,1 C 19,1 C 0,0 km/h (0 Bft)
26/05/2018 09:05 18,9 C 71 % 1012,0 hPa 0,0 mm 0,0 km/h (0 Bft) E-NE 76 0 min 0,050 mm 0,7 UV-I 62 W/m 13,5 C 18,9 C 0,0 km/h (0 Bft)
26/05/2018 09:00 18,7 C 71 % 1012,0 hPa 0,0 mm 0,0 km/h (0 Bft) E-NE 76 0 min 0,000 mm 0,7 UV-I 62 W/m 13,3 C 18,7 C 0,0 km/h (0 Bft)
26/05/2018 08:55 18,3 C 72 % 1012,0 hPa 0,0 mm 0,0 km/h (0 Bft) E-NE 74 0 min 0,000 mm 0,6 UV-I 74 W/m 13,2 C 18,3 C 1,6 km/h (1 Bft)
26/05/2018 08:50 17,7 C 75 % 1012,0 hPa 0,0 mm 0,0 km/h (0 Bft) SO 223 0 min 0,000 mm 0,6 UV-I 70 W/m 13,2 C 17,7 C 0,0 km/h (0 Bft)
26/05/2018 08:45 17,1 C 78 % 1012,0 hPa 0,0 mm 0,0 km/h (0 Bft) SO 223 0 min 0,000 mm 0,7 UV-I 169 W/m 13,2 C 17,1 C 0,0 km/h (0 Bft)
26/05/2018 08:40 16,6 C 79 % 1012,1 hPa 0,0 mm 0,0 km/h (0 Bft) SO 223 0 min 0,000 mm 0,6 UV-I 184 W/m 12,9 C 16,6 C 0,0 km/h (0 Bft)
26/05/2018 08:35 16,3 C 79 % 1012,1 hPa 0,0 mm 0,3 km/h (0 Bft) SO 223 0 min 0,000 mm 0,4 UV-I 121 W/m 12,6 C 16,3 C 3,2 km/h (1 Bft)
26/05/2018 08:30 16,0 C 79 % 1012,2 hPa 0,0 mm 0,0 km/h (0 Bft) S 177 0 min 0,000 mm 0,0 UV-I 69 W/m 12,4 C 16,0 C 0,0 km/h (0 Bft)
26/05/2018 08:25 15,6 C 79 % 1012,2 hPa 0,0 mm 0,0 km/h (0 Bft) S 176 0 min 0,000 mm 0,0 UV-I 84 W/m 12,0 C 15,6 C 0,0 km/h (0 Bft)
26/05/2018 08:20 15,1 C 78 % 1012,2 hPa 0,0 mm 0,0 km/h (0 Bft) S 177 0 min 0,000 mm 0,0 UV-I 68 W/m 11,3 C 15,1 C 0,0 km/h (0 Bft)
26/05/2018 08:15 14,7 C 80 % 1012,2 hPa 0,0 mm 0,0 km/h (0 Bft) S 176 0 min 0,000 mm 0,0 UV-I 84 W/m 11,3 C 14,7 C 0,0 km/h (0 Bft)
26/05/2018 08:10 14,6 C 80 % 1012,2 hPa 0,0 mm 0,2 km/h (0 Bft) S 176 0 min 0,000 mm 0,0 UV-I 143 W/m 11,2 C 14,6 C 1,6 km/h (1 Bft)
26/05/2018 08:05 14,4 C 81 % 1012,2 hPa 0,0 mm 0,2 km/h (0 Bft) N-NE 30 0 min 0,026 mm 0,0 UV-I 76 W/m 11,2 C 14,4 C 3,2 km/h (1 Bft)
26/05/2018 08:00 14,3 C 80 % 1012,3 hPa 0,0 mm 0,4 km/h (0 Bft) E 98 0 min 0,000 mm 0,0 UV-I 46 W/m 10,9 C 14,3 C 3,2 km/h (1 Bft)
26/05/2018 07:55 14,1 C 80 % 1012,3 hPa 0,0 mm 0,0 km/h (0 Bft) SE 142 0 min 0,000 mm 0,0 UV-I 44 W/m 10,7 C 14,1 C 0,0 km/h (0 Bft)
26/05/2018 07:50 14,0 C 80 % 1012,1 hPa 0,0 mm 0,0 km/h (0 Bft) SE 141 0 min 0,051 mm 0,0 UV-I 46 W/m 10,6 C 14,0 C 0,0 km/h (0 Bft)
26/05/2018 07:45 13,8 C 79 % 1012,3 hPa 0,0 mm 0,0 km/h (0 Bft) N 0 0 min 0,000 mm 0,0 UV-I 46 W/m 10,2 C 13,8 C 0,0 km/h (0 Bft)
26/05/2018 07:40 13,7 C 78 % 1012,2 hPa 0,0 mm 0,0 km/h (0 Bft) N 0 0 min 0,000 mm 0,0 UV-I 45 W/m 9,9 C 13,7 C 0,0 km/h (0 Bft)
26/05/2018 07:35 13,5 C 77 % 1012,2 hPa 0,0 mm 0,0 km/h (0 Bft) N 0 0 min 0,000 mm 0,0 UV-I 47 W/m 9,5 C 13,5 C 0,0 km/h (0 Bft)
26/05/2018 07:30 13,4 C 76 % 1012,3 hPa 0,0 mm 0,0 km/h (0 Bft) N 0 0 min 0,000 mm 0,0 UV-I 52 W/m 9,3 C 13,4 C 0,0 km/h (0 Bft)
26/05/2018 07:25 13,2 C 75 % 1012,3 hPa 0,0 mm 0,0 km/h (0 Bft) N 0 0 min 0,000 mm 0,0 UV-I 52 W/m 8,9 C 13,2 C 0,0 km/h (0 Bft)
26/05/2018 07:20 13,1 C 75 % 1012,3 hPa 0,0 mm 0,0 km/h (0 Bft) N 0 0 min 0,000 mm 0,0 UV-I 45 W/m 8,8 C 13,1 C 0,0 km/h (0 Bft)
26/05/2018 07:15 13,1 C 76 % 1012,2 hPa 0,0 mm 0,0 km/h (0 Bft) N 0 0 min 0,000 mm 0,0 UV-I 42 W/m 9,0 C 13,1 C 0,0 km/h (0 Bft)
26/05/2018 07:10 13,1 C 75 % 1012,2 hPa 0,0 mm 0,0 km/h (0 Bft) N 0 0 min 0,000 mm 0,0 UV-I 35 W/m 8,8 C 13,1 C 0,0 km/h (0 Bft)
26/05/2018 07:05 13,2 C 75 % 1012,0 hPa 0,0 mm 0,0 km/h (0 Bft) N 0 0 min 0,000 mm 0,0 UV-I 26 W/m 8,9 C 13,2 C 0,0 km/h (0 Bft)
26/05/2018 07:00 13,2 C 72 % 1011,9 hPa 0,0 mm 0,0 km/h (0 Bft) N 0 0 min 0,000 mm 0,0 UV-I 20 W/m 8,3 C 13,2 C 0,0 km/h (0 Bft)
26/05/2018 06:55 13,1 C 73 % 1011,9 hPa 0,0 mm 0,0 km/h (0 Bft) N 0 0 min 0,000 mm 0,0 UV-I 18 W/m 8,4 C 13,1 C 0,0 km/h (0 Bft)
26/05/2018 06:50 13,1 C 73 % 1011,9 hPa 0,0 mm 0,0 km/h (0 Bft) N 0 0 min 0,000 mm 0,0 UV-I 15 W/m 8,4 C 13,1 C 0,0 km/h (0 Bft)
26/05/2018 06:45 13,1 C 73 % 1011,9 hPa 0,0 mm 0,0 km/h (0 Bft) N 0 0 min 0,000 mm 0,0 UV-I 13 W/m 8,4 C 13,1 C 0,0 km/h (0 Bft)
26/05/2018 06:40 13,2 C 73 % 1012,0 hPa 0,0 mm 0,0 km/h (0 Bft) N 0 0 min 0,000 mm 0,0 UV-I 11 W/m 8,5 C 13,2 C 0,0 km/h (0 Bft)
26/05/2018 06:35 13,4 C 73 % 1011,8 hPa 0,0 mm 0,0 km/h (0 Bft) N 0 0 min 0,000 mm 0,0 UV-I 9 W/m 8,7 C 13,4 C 0,0 km/h (0 Bft)
26/05/2018 06:30 13,7 C 72 % 1011,9 hPa 0,0 mm 0,0 km/h (0 Bft) N 0 0 min 0,000 mm 0,0 UV-I 7 W/m 8,7 C 13,7 C 0,0 km/h (0 Bft)
26/05/2018 06:25 13,9 C 68 % 1012,0 hPa 0,0 mm 0,0 km/h (0 Bft) N 0 0 min 0,000 mm 0,0 UV-I 5 W/m 8,1 C 13,9 C 0,0 km/h (0 Bft)
26/05/2018 06:20 14,1 C 69 % 1011,9 hPa 0,0 mm 0,0 km/h (0 Bft) N 0 0 min 0,000 mm 0,0 UV-I 0 W/m 8,5 C 14,1 C 0,0 km/h (0 Bft)
26/05/2018 06:15 14,2 C 68 % 1011,9 hPa 0,0 mm 0,0 km/h (0 Bft) N 0 0 min 0,000 mm 0,0 UV-I 0 W/m 8,4 C 14,2 C 0,0 km/h (0 Bft)
26/05/2018 06:10 14,3 C 67 % 1011,8 hPa 0,0 mm 0,0 km/h (0 Bft) N 0 0 min 0,000 mm 0,0 UV-I 0 W/m 8,3 C 14,3 C 0,0 km/h (0 Bft)
26/05/2018 06:05 14,4 C 65 % 1011,7 hPa 0,0 mm 0,0 km/h (0 Bft) N 0 0 min 0,000 mm 0,0 UV-I 0 W/m 7,9 C 14,4 C 0,0 km/h (0 Bft)
26/05/2018 06:00 14,4 C 64 % 1011,8 hPa 0,0 mm 0,0 km/h (0 Bft) N 0 0 min 0,025 mm 0,0 UV-I 0 W/m 7,7 C 14,4 C 0,0 km/h (0 Bft)
26/05/2018 05:55 14,6 C 65 % 1011,8 hPa 0,0 mm 0,0 km/h (0 Bft) N 0 0 min 0,000 mm 0,0 UV-I 0 W/m 8,1 C 14,6 C 0,0 km/h (0 Bft)
26/05/2018 05:50 14,8 C 65 % 1011,6 hPa 0,0 mm 0,0 km/h (0 Bft) N 0 0 min 0,000 mm 0,0 UV-I 0 W/m 8,3 C 14,8 C 0,0 km/h (0 Bft)
26/05/2018 05:45 15,1 C 65 % 1011,6 hPa 0,0 mm 0,0 km/h (0 Bft) N 0 0 min 0,000 mm 0,0 UV-I 0 W/m 8,6 C 15,1 C 0,0 km/h (0 Bft)
26/05/2018 05:40 15,2 C 64 % 1011,6 hPa 0,0 mm 0,0 km/h (0 Bft) N 0 0 min 0,000 mm 0,0 UV-I 0 W/m 8,4 C 15,2 C 0,0 km/h (0 Bft)
26/05/2018 05:35 15,3 C 62 % 1011,6 hPa 0,0 mm 0,0 km/h (0 Bft) N 0 0 min 0,000 mm 0,0 UV-I 0 W/m 8,1 C 15,3 C 0,0 km/h (0 Bft)
26/05/2018 05:30 15,3 C 62 % 1011,6 hPa 0,0 mm 0,0 km/h (0 Bft) SE 135 0 min 0,000 mm 0,0 UV-I 0 W/m 8,1 C 15,3 C 1,6 km/h (1 Bft)
26/05/2018 05:25 15,5 C 62 % 1011,5 hPa 0,0 mm 0,0 km/h (0 Bft) N 0 0 min 0,000 mm 0,0 UV-I 0 W/m 8,3 C 15,5 C 0,0 km/h (0 Bft)
26/05/2018 05:20 15,7 C 61 % 1011,3 hPa 0,0 mm 0,0 km/h (0 Bft) N 0 0 min 0,000 mm 0,0 UV-I 0 W/m 8,2 C 15,7 C 0,0 km/h (0 Bft)
26/05/2018 05:15 15,9 C 60 % 1011,2 hPa 0,0 mm 0,0 km/h (0 Bft) N 0 0 min 0,000 mm 0,0 UV-I 0 W/m 8,1 C 15,9 C 0,0 km/h (0 Bft)
26/05/2018 05:10 16,2 C 59 % 1011,1 hPa 0,0 mm 0,0 km/h (0 Bft) N 0 0 min 0,000 mm 0,0 UV-I 0 W/m 8,2 C 16,2 C 0,0 km/h (0 Bft)
26/05/2018 05:05 16,4 C 58 % 1011,2 hPa 0,0 mm 0,0 km/h (0 Bft) N 0 0 min 0,000 mm 0,0 UV-I 0 W/m 8,1 C 16,4 C 0,0 km/h (0 Bft)
26/05/2018 05:00 16,8 C 57 % 1011,2 hPa 0,0 mm 0,0 km/h (0 Bft) SE 135 0 min 0,051 mm 0,0 UV-I 0 W/m 8,2 C 16,8 C 1,6 km/h (1 Bft)
26/05/2018 04:55 17,0 C 56 % 1011,1 hPa 0,0 mm 0,0 km/h (0 Bft) N 0 0 min 0,000 mm 0,0 UV-I 0 W/m 8,2 C 17,0 C 0,0 km/h (0 Bft)
26/05/2018 04:50 17,1 C 55 % 1011,0 hPa 0,0 mm 0,0 km/h (0 Bft) S-SE 157 0 min 0,000 mm 0,0 UV-I 0 W/m 8,0 C 17,1 C 1,6 km/h (1 Bft)
26/05/2018 04:45 17,1 C 54 % 1010,9 hPa 0,0 mm 0,0 km/h (0 Bft) SE 135 0 min 0,000 mm 0,0 UV-I 0 W/m 7,7 C 17,1 C 4,8 km/h (1 Bft)
26/05/2018 04:40 16,9 C 55 % 1010,9 hPa 0,0 mm 0,0 km/h (0 Bft) S-SE 157 0 min 0,000 mm 0,0 UV-I 0 W/m 7,8 C 16,9 C 3,2 km/h (1 Bft)
26/05/2018 04:35 16,9 C 56 % 1010,9 hPa 0,0 mm 0,0 km/h (0 Bft) S-SE 157 0 min 0,000 mm 0,0 UV-I 0 W/m 8,1 C 16,9 C 1,6 km/h (1 Bft)
26/05/2018 04:30 16,9 C 56 % 1010,8 hPa 0,0 mm 0,0 km/h (0 Bft) S-SE 157 0 min 0,000 mm 0,0 UV-I 0 W/m 8,1 C 16,9 C 3,2 km/h (1 Bft)
26/05/2018 04:25 16,9 C 55 % 1010,8 hPa 0,0 mm 0,0 km/h (0 Bft) SE 135 0 min 0,000 mm 0,0 UV-I 0 W/m 7,8 C 16,9 C 1,6 km/h (1 Bft)
26/05/2018 04:20 17,0 C 56 % 1010,8 hPa 0,0 mm 0,0 km/h (0 Bft) N-NE 22 0 min 0,000 mm 0,0 UV-I 0 W/m 8,2 C 17,0 C 4,8 km/h (1 Bft)
26/05/2018 04:15 17,1 C 56 % 1010,9 hPa 0,0 mm 0,0 km/h (0 Bft) S-SE 157 0 min 0,000 mm 0,0 UV-I 0 W/m 8,3 C 17,1 C 4,8 km/h (1 Bft)
26/05/2018 04:10 16,9 C 56 % 1010,9 hPa 0,0 mm 0,0 km/h (0 Bft) SE 135 0 min 0,000 mm 0,0 UV-I 0 W/m 8,1 C 16,9 C 3,2 km/h (1 Bft)
26/05/2018 04:05 17,2 C 55 % 1010,9 hPa 0,0 mm 0,0 km/h (0 Bft) S-SE 157 0 min 0,000 mm 0,0 UV-I 0 W/m 8,1 C 17,2 C 1,6 km/h (1 Bft)
26/05/2018 04:00 17,3 C 55 % 1011,0 hPa 0,0 mm 0,0 km/h (0 Bft) S 169 0 min 0,000 mm 0,0 UV-I 0 W/m 8,2 C 17,3 C 1,6 km/h (1 Bft)
26/05/2018 03:55 17,4 C 55 % 1010,9 hPa 0,0 mm 0,7 km/h (0 Bft) S-SE 156 0 min 0,000 mm 0,0 UV-I 0 W/m 8,3 C 17,4 C 8,0 km/h (2 Bft)
26/05/2018 03:50 17,3 C 55 % 1011,0 hPa 0,0 mm 0,1 km/h (0 Bft) SE 130 0 min 0,000 mm 0,0 UV-I 0 W/m 8,2 C 17,3 C 3,2 km/h (1 Bft)
26/05/2018 03:45 17,3 C 55 % 1011,1 hPa 0,0 mm 0,6 km/h (0 Bft) SE 134 0 min 0,000 mm 0,0 UV-I 0 W/m 8,2 C 17,3 C 8,0 km/h (2 Bft)
26/05/2018 03:40 17,3 C 56 % 1011,1 hPa 0,0 mm 0,3 km/h (0 Bft) SE 137 0 min 0,000 mm 0,0 UV-I 0 W/m 8,4 C 17,3 C 3,2 km/h (1 Bft)
26/05/2018 03:35 17,4 C 56 % 1011,1 hPa 0,0 mm 0,2 km/h (0 Bft) SE 130 0 min 0,000 mm 0,0 UV-I 0 W/m 8,5 C 17,4 C 3,2 km/h (1 Bft)
26/05/2018 03:30 17,4 C 55 % 1011,1 hPa 0,0 mm 0,2 km/h (0 Bft) S-SE 164 0 min 0,000 mm 0,0 UV-I 0 W/m 8,3 C 17,4 C 3,2 km/h (1 Bft)
26/05/2018 03:25 17,5 C 56 % 1011,2 hPa 0,0 mm 0,1 km/h (0 Bft) SE 133 0 min 0,000 mm 0,0 UV-I 0 W/m 8,6 C 17,5 C 3,2 km/h (1 Bft)
26/05/2018 03:20 17,6 C 56 % 1011,3 hPa 0,0 mm 0,0 km/h (0 Bft) SE 137 0 min 0,000 mm 0,0 UV-I 0 W/m 8,7 C 17,6 C 1,6 km/h (1 Bft)
26/05/2018 03:15 17,5 C 57 % 1011,2 hPa 0,0 mm 0,0 km/h (0 Bft) S 190 0 min 0,000 mm 0,0 UV-I 0 W/m 8,9 C 17,5 C 0,0 km/h (0 Bft)
26/05/2018 03:10 17,6 C 57 % 1011,4 hPa 0,0 mm 0,0 km/h (0 Bft) S 175 0 min 0,000 mm 0,0 UV-I 0 W/m 9,0 C 17,6 C 0,0 km/h (0 Bft)
26/05/2018 03:05 17,7 C 57 % 1011,3 hPa 0,0 mm 0,0 km/h (0 Bft) S 175 0 min 0,025 mm 0,0 UV-I 0 W/m 9,1 C 17,7 C 0,0 km/h (0 Bft)
26/05/2018 03:00 17,5 C 56 % 1011,4 hPa 0,0 mm 1,5 km/h (1 Bft) S 175 0 min 0,000 mm 0,0 UV-I 0 W/m 8,6 C 17,5 C 9,7 km/h (2 Bft)
26/05/2018 02:55 17,3 C 58 % 1011,4 hPa 0,0 mm 0,1 km/h (0 Bft) SE 142 0 min 0,000 mm 0,0 UV-I 0 W/m 9,0 C 17,3 C 3,2 km/h (1 Bft)
26/05/2018 02:50 17,2 C 60 % 1011,4 hPa 0,0 mm 0,2 km/h (0 Bft) SE 126 0 min 0,000 mm 0,0 UV-I 0 W/m 9,4 C 17,2 C 3,2 km/h (1 Bft)
26/05/2018 02:45 17,1 C 60 % 1011,4 hPa 0,0 mm 0,5 km/h (0 Bft) E-SE 111 0 min 0,000 mm 0,0 UV-I 0 W/m 9,3 C 17,1 C 6,4 km/h (2 Bft)
26/05/2018 02:40 17,0 C 60 % 1011,5 hPa 0,0 mm 0,3 km/h (0 Bft) SE 133 0 min 0,000 mm 0,0 UV-I 0 W/m 9,2 C 17,0 C 4,8 km/h (1 Bft)
26/05/2018 02:35 17,0 C 61 % 1011,5 hPa 0,0 mm 0,0 km/h (0 Bft) E-SE 111 0 min 0,000 mm 0,0 UV-I 0 W/m 9,4 C 17,0 C 0,0 km/h (0 Bft)
26/05/2018 02:30 17,0 C 63 % 1011,4 hPa 0,0 mm 0,0 km/h (0 Bft) E-SE 111 0 min 0,000 mm 0,0 UV-I 0 W/m 9,9 C 17,0 C 1,6 km/h (1 Bft)
26/05/2018 02:25 17,1 C 63 % 1011,4 hPa 0,0 mm 0,0 km/h (0 Bft) E 84 0 min 0,000 mm 0,0 UV-I 0 W/m 10,0 C 17,1 C 0,0 km/h (0 Bft)
26/05/2018 02:20 17,2 C 62 % 1011,3 hPa 0,0 mm 0,0 km/h (0 Bft) E 84 0 min 0,000 mm 0,0 UV-I 0 W/m 9,9 C 17,2 C 0,0 km/h (0 Bft)
26/05/2018 02:15 17,3 C 61 % 1011,3 hPa 0,0 mm 0,0 km/h (0 Bft) E 84 0 min 0,000 mm 0,0 UV-I 0 W/m 9,7 C 17,3 C 0,0 km/h (0 Bft)
26/05/2018 02:10 17,4 C 62 % 1011,4 hPa 0,0 mm 0,2 km/h (0 Bft) E 84 0 min 0,000 mm 0,0 UV-I 0 W/m 10,0 C 17,4 C 3,2 km/h (1 Bft)
26/05/2018 02:05 17,6 C 61 % 1011,2 hPa 0,0 mm 0,0 km/h (0 Bft) SE 126 0 min 0,026 mm 0,0 UV-I 0 W/m 10,0 C 17,6 C 0,0 km/h (0 Bft)
26/05/2018 02:00 17,6 C 61 % 1011,3 hPa 0,0 mm 0,0 km/h (0 Bft) SE 127 0 min 0,000 mm 0,0 UV-I 0 W/m 10,0 C 17,6 C 0,0 km/h (0 Bft)
26/05/2018 01:55 17,6 C 61 % 1011,4 hPa 0,0 mm 0,2 km/h (0 Bft) S-SE 153 0 min 0,000 mm 0,0 UV-I 0 W/m 10,0 C 17,6 C 3,2 km/h (1 Bft)
26/05/2018 01:50 17,4 C 61 % 1011,3 hPa 0,0 mm 0,3 km/h (0 Bft) E 91 0 min 0,000 mm 0,0 UV-I 0 W/m 9,8 C 17,4 C 3,2 km/h (1 Bft)
26/05/2018 01:45 17,4 C 63 % 1011,4 hPa 0,0 mm 0,0 km/h (0 Bft) SE 131 0 min 0,000 mm 0,0 UV-I 0 W/m 10,3 C 17,4 C 0,0 km/h (0 Bft)
26/05/2018 01:40 17,4 C 63 % 1011,3 hPa 0,0 mm 0,0 km/h (0 Bft) SE 130 0 min 0,000 mm 0,0 UV-I 0 W/m 10,3 C 17,4 C 0,0 km/h (0 Bft)
26/05/2018 01:35 17,3 C 64 % 1011,4 hPa 0,0 mm 0,1 km/h (0 Bft) E 92 0 min 0,000 mm 0,0 UV-I 0 W/m 10,4 C 17,3 C 1,6 km/h (1 Bft)
26/05/2018 01:30 17,1 C 65 % 1011,4 hPa 0,0 mm 0,5 km/h (0 Bft) E-SE 106 0 min 0,000 mm 0,0 UV-I 0 W/m 10,5 C 17,1 C 4,8 km/h (1 Bft)
26/05/2018 01:25 16,9 C 66 % 1011,4 hPa 0,0 mm 0,0 km/h (0 Bft) E-NE 60 0 min 0,000 mm 0,0 UV-I 0 W/m 10,5 C 16,9 C 1,6 km/h (1 Bft)
26/05/2018 01:20 16,8 C 68 % 1011,3 hPa 0,0 mm 0,2 km/h (0 Bft) E-NE 60 0 min 0,000 mm 0,0 UV-I 0 W/m 10,9 C 16,8 C 1,6 km/h (1 Bft)
26/05/2018 01:15 16,6 C 70 % 1011,4 hPa 0,0 mm 0,1 km/h (0 Bft) E 90 0 min 0,000 mm 0,0 UV-I 0 W/m 11,1 C 16,6 C 1,6 km/h (1 Bft)
26/05/2018 01:10 16,3 C 72 % 1011,4 hPa 0,0 mm 0,2 km/h (0 Bft) E 90 0 min 0,000 mm 0,0 UV-I 0 W/m 11,2 C 16,3 C 3,2 km/h (1 Bft)
26/05/2018 01:05 16,2 C 74 % 1011,5 hPa 0,0 mm 0,2 km/h (0 Bft) E 96 0 min 0,025 mm 0,0 UV-I 0 W/m 11,6 C 16,2 C 1,6 km/h (1 Bft)
26/05/2018 01:00 16,0 C 75 % 1011,6 hPa 0,0 mm 0,0 km/h (0 Bft) E-SE 121 0 min 0,000 mm 0,0 UV-I 0 W/m 11,6 C 16,0 C 0,0 km/h (0 Bft)
26/05/2018 00:55 15,9 C 76 % 1011,6 hPa 0,0 mm 0,0 km/h (0 Bft) E-SE 121 0 min 0,000 mm 0,0 UV-I 0 W/m 11,7 C 15,9 C 0,0 km/h (0 Bft)
26/05/2018 00:50 15,8 C 77 % 1011,5 hPa 0,0 mm 0,0 km/h (0 Bft) E-SE 121 0 min 0,000 mm 0,0 UV-I 0 W/m 11,8 C 15,8 C 0,0 km/h (0 Bft)
26/05/2018 00:45 15,8 C 77 % 1011,6 hPa 0,0 mm 0,0 km/h (0 Bft) E-SE 121 0 min 0,000 mm 0,0 UV-I 0 W/m 11,8 C 15,8 C 0,0 km/h (0 Bft)
26/05/2018 00:40 15,8 C 77 % 1011,6 hPa 0,0 mm 0,0 km/h (0 Bft) E-SE 121 0 min 0,000 mm 0,0 UV-I 0 W/m 11,8 C 15,8 C 0,0 km/h (0 Bft)
26/05/2018 00:35 15,9 C 76 % 1011,6 hPa 0,0 mm 0,0 km/h (0 Bft) E-SE 121 0 min 0,000 mm 0,0 UV-I 0 W/m 11,7 C 15,9 C 0,0 km/h (0 Bft)
26/05/2018 00:30 16,1 C 75 % 1011,6 hPa 0,0 mm 0,0 km/h (0 Bft) E-SE 121 0 min 0,000 mm 0,0 UV-I 0 W/m 11,7 C 16,1 C 0,0 km/h (0 Bft)
26/05/2018 00:25 16,2 C 74 % 1011,6 hPa 0,0 mm 0,0 km/h (0 Bft) E-SE 121 0 min 0,000 mm 0,0 UV-I 0 W/m 11,6 C 16,2 C 0,0 km/h (0 Bft)
26/05/2018 00:20 16,4 C 74 % 1011,7 hPa 0,0 mm 0,0 km/h (0 Bft) E-SE 121 0 min 0,000 mm 0,0 UV-I 0 W/m 11,8 C 16,4 C 0,0 km/h (0 Bft)
26/05/2018 00:15 16,6 C 73 % 1011,7 hPa 0,0 mm 0,0 km/h (0 Bft) E-SE 121 0 min 0,000 mm 0,0 UV-I 0 W/m 11,7 C 16,6 C 0,0 km/h (0 Bft)
26/05/2018 00:10 16,8 C 71 % 1011,5 hPa 0,0 mm 0,0 km/h (0 Bft) E-SE 121 0 min 0,000 mm 0,0 UV-I 0 W/m 11,5 C 16,8 C 0,0 km/h (0 Bft)
26/05/2018 00:05 16,9 C 71 % 1011,6 hPa 0,0 mm 0,0 km/h (0 Bft) E-SE 121 0 min 0,000 mm 0,0 UV-I 0 W/m 11,6 C 16,9 C 0,0 km/h (0 Bft)
26/05/2018 00:00 17,1 C 70 % 1011,5 hPa 0,0 mm 0,0 km/h (0 Bft) E-SE 121 0 min 0,000 mm 0,0 UV-I 0 W/m 11,6 C 17,1 C 0,0 km/h (0 Bft)
_ Min-Heure 07:20 14:00 12:30 - 09:15 - - - - - - 06:00 07:20 09:10
Minimum _ 13,1 C 46 % 1010,7 hPa - 0,0 km/h (0 Bft) - - - - - - 7,7 C 13,1 C 0,0 km/h (0 Bft)
_ Max-Heure 13:55 08:05 08:00 14:05 12:50 - - 13:55 13:05 13:50 13:55 12:00 13:55 13:25
Maximum _ 26,5 C 81 % 1012,3 hPa 0,0 mm 6,6 km/h
SE (2 Bft)
- - 5 min 0,533 mm 6,8 UV-I 1043 W/m 15,7 C 26,5 C 19,3 km/h
S-SE (3 Bft)
Moyenne _ 18,7 C 63 % 1011,5 hPa #0,0 mm 0,9 km/h (0 Bft) SE - #2:30 h #1,854 mm 2,9 UV-I 179 W/m 11,3 C 18,7 C 4,8 km/h (1 Bft)